Time,TemperatureF,DewpointF,PressureIn,WindDirection,WindDirectionDegrees,WindSpeedMPH,WindSpeedGustMPH,Humidity,HourlyPrecipIn,Conditions,Clouds,dailyrainin,SolarRadiationWatts/m^2,SoftwareType,DateUTC
2013-02-27 00:02:00,34.0,34.0,-100.00,WNW,296,4.0,8.0,100,0.00,,,1.26,5.000000,,2013-02-27 05:02:00,
2013-02-27 00:10:00,35.0,35.0,-100.00,NW,320,2.0,7.0,100,0.00,,,1.26,5.000000,,2013-02-27 05:10:00,
2013-02-27 00:32:00,35.0,35.0,-100.00,NW,320,2.0,7.0,100,0.00,,,1.26,5.000000,,2013-02-27 05:32:00,
2013-02-27 00:42:00,35.0,35.0,-100.00,NW,320,2.0,7.0,100,0.00,,,1.26,5.000000,,2013-02-27 05:42:00,
2013-02-27 00:52:00,35.0,35.0,-100.00,NW,320,2.0,7.0,100,0.00,,,1.26,5.000000,,2013-02-27 05:52:00,
2013-02-27 01:02:00,35.0,35.0,-100.00,NW,320,2.0,7.0,100,0.00,,,1.26,5.000000,,2013-02-27 06:02:00,
2013-02-27 01:10:00,37.0,37.0,-100.00,WNW,290,4.0,20.0,100,0.00,,,1.26,2.000000,,2013-02-27 06:10:00,
2013-02-27 01:33:00,37.0,37.0,-100.00,WNW,290,4.0,20.0,100,0.00,,,1.26,2.000000,,2013-02-27 06:33:00,
2013-02-27 01:42:00,37.0,37.0,-100.00,WNW,290,4.0,20.0,100,0.00,,,1.26,2.000000,,2013-02-27 06:42:00,
2013-02-27 01:52:00,37.0,37.0,-100.00,WNW,290,4.0,20.0,100,0.00,,,1.26,2.000000,,2013-02-27 06:52:00,
2013-02-27 02:01:00,37.0,37.0,-100.00,WNW,290,4.0,20.0,100,0.00,,,1.26,2.000000,,2013-02-27 07:01:00,
2013-02-27 02:10:00,36.0,34.0,-100.00,West,273,9.0,23.0,93,0.00,,,1.26,0.000000,,2013-02-27 07:10:00,
2013-02-27 02:32:00,36.0,34.0,-100.00,West,273,9.0,23.0,93,0.00,,,1.26,0.000000,,2013-02-27 07:32:00,
2013-02-27 02:42:00,36.0,34.0,-100.00,West,273,9.0,23.0,93,0.00,,,1.26,0.000000,,2013-02-27 07:42:00,
2013-02-27 02:52:00,36.0,34.0,-100.00,West,273,9.0,23.0,93,0.00,,,1.26,0.000000,,2013-02-27 07:52:00,
2013-02-27 03:01:00,36.0,34.0,-100.00,West,273,9.0,23.0,93,0.00,,,1.26,0.000000,,2013-02-27 08:01:00,
2013-02-27 03:10:00,36.0,33.0,-100.00,West,272,10.0,23.0,88,0.00,,,1.26,0.000000,,2013-02-27 08:10:00,
2013-02-27 03:32:00,36.0,33.0,-100.00,West,272,10.0,23.0,88,0.00,,,1.26,0.000000,,2013-02-27 08:32:00,
2013-02-27 03:42:00,36.0,33.0,-100.00,West,272,10.0,23.0,88,0.00,,,1.26,0.000000,,2013-02-27 08:42:00,
2013-02-27 03:53:00,36.0,33.0,-100.00,West,272,10.0,23.0,88,0.00,,,1.26,0.000000,,2013-02-27 08:53:00,
2013-02-27 04:02:00,36.0,33.0,-100.00,West,272,10.0,23.0,88,0.00,,,1.26,0.000000,,2013-02-27 09:02:00,
2013-02-27 04:10:00,36.0,32.0,-100.00,WNW,292,9.0,22.0,84,0.00,,,1.26,0.000000,,2013-02-27 09:10:00,
2013-02-27 04:32:00,36.0,32.0,-100.00,WNW,292,9.0,22.0,84,0.00,,,1.26,0.000000,,2013-02-27 09:32:00,
2013-02-27 04:42:00,36.0,32.0,-100.00,WNW,292,9.0,22.0,84,0.00,,,1.26,0.000000,,2013-02-27 09:42:00,
2013-02-27 04:52:00,36.0,32.0,-100.00,WNW,292,9.0,22.0,84,0.00,,,1.26,0.000000,,2013-02-27 09:52:00,
2013-02-27 05:01:00,36.0,32.0,-100.00,WNW,292,9.0,22.0,84,0.00,,,1.26,0.000000,,2013-02-27 10:01:00,
2013-02-27 05:10:00,33.0,28.0,-100.00,WNW,293,7.0,24.0,81,0.00,,,1.26,0.000000,,2013-02-27 10:10:00,
2013-02-27 05:32:00,33.0,28.0,-100.00,WNW,293,7.0,24.0,81,0.00,,,1.26,0.000000,,2013-02-27 10:32:00,
2013-02-27 05:42:00,33.0,28.0,-100.00,WNW,293,7.0,24.0,81,0.00,,,1.26,0.000000,,2013-02-27 10:42:00,
2013-02-27 05:53:00,33.0,28.0,-100.00,WNW,293,7.0,24.0,81,0.00,,,1.26,0.000000,,2013-02-27 10:53:00,
2013-02-27 06:02:00,33.0,28.0,-100.00,WNW,293,7.0,24.0,81,0.00,,,1.26,0.000000,,2013-02-27 11:02:00,
2013-02-27 06:10:00,34.0,28.0,-100.00,West,280,13.0,30.0,77,0.00,,,1.26,0.000000,,2013-02-27 11:10:00,
2013-02-27 06:32:00,34.0,28.0,-100.00,West,280,13.0,30.0,77,0.00,,,1.26,0.000000,,2013-02-27 11:32:00,
2013-02-27 06:42:00,34.0,28.0,-100.00,West,280,13.0,30.0,77,0.00,,,1.26,0.000000,,2013-02-27 11:42:00,
2013-02-27 06:52:00,34.0,28.0,-100.00,West,280,13.0,30.0,77,0.00,,,1.26,0.000000,,2013-02-27 11:52:00,
2013-02-27 07:02:00,34.0,28.0,-100.00,West,280,13.0,30.0,77,0.00,,,1.26,0.000000,,2013-02-27 12:02:00,
2013-02-27 07:10:00,33.0,26.0,-100.00,WNW,286,14.0,32.0,75,0.00,,,1.20,0.000000,,2013-02-27 12:10:00,
2013-02-27 07:33:00,33.0,26.0,-100.00,WNW,286,14.0,32.0,75,0.00,,,1.20,0.000000,,2013-02-27 12:33:00,
2013-02-27 07:42:00,33.0,26.0,-100.00,WNW,286,14.0,32.0,75,0.00,,,1.20,0.000000,,2013-02-27 12:42:00,
2013-02-27 07:53:00,33.0,26.0,-100.00,WNW,286,14.0,32.0,75,0.00,,,1.20,0.000000,,2013-02-27 12:53:00,
2013-02-27 08:02:00,33.0,26.0,-100.00,WNW,286,14.0,32.0,75,0.00,,,1.20,0.000000,,2013-02-27 13:02:00,
2013-02-27 08:10:00,34.0,26.0,-100.00,WNW,291,16.0,31.0,72,0.00,,,1.03,2.000000,,2013-02-27 13:10:00,
2013-02-27 08:32:00,34.0,26.0,-100.00,WNW,291,16.0,31.0,72,0.00,,,1.03,2.000000,,2013-02-27 13:32:00,
2013-02-27 08:42:00,34.0,26.0,-100.00,WNW,291,16.0,31.0,72,0.00,,,1.03,2.000000,,2013-02-27 13:42:00,
2013-02-27 08:52:00,34.0,26.0,-100.00,WNW,291,16.0,31.0,72,0.00,,,1.03,2.000000,,2013-02-27 13:52:00,
2013-02-27 09:02:00,34.0,26.0,-100.00,WNW,291,16.0,31.0,72,0.00,,,1.03,2.000000,,2013-02-27 14:02:00,
2013-02-27 09:10:00,34.0,28.0,-100.00,West,281,9.0,30.0,77,0.00,,,0.88,72.000000,,2013-02-27 14:10:00,
2013-02-27 09:42:00,34.0,28.0,-100.00,West,281,9.0,30.0,77,0.00,,,0.88,72.000000,,2013-02-27 14:42:00,
2013-02-27 09:53:00,34.0,28.0,-100.00,West,281,9.0,30.0,77,0.00,,,0.88,72.000000,,2013-02-27 14:53:00,
2013-02-27 10:02:00,34.0,28.0,-100.00,West,281,9.0,30.0,77,0.00,,,0.88,72.000000,,2013-02-27 15:02:00,
2013-02-27 10:10:00,38.0,29.0,-100.00,WNW,288,10.0,23.0,71,0.00,,,-99.99,322.000000,,2013-02-27 15:10:00,
2013-02-27 10:32:00,38.0,29.0,-100.00,WNW,288,10.0,23.0,71,0.00,,,-99.99,322.000000,,2013-02-27 15:32:00,
2013-02-27 10:42:00,38.0,29.0,-100.00,WNW,288,10.0,23.0,71,0.00,,,-99.99,322.000000,,2013-02-27 15:42:00,
2013-02-27 10:52:00,38.0,29.0,-100.00,WNW,288,10.0,23.0,71,0.00,,,-99.99,322.000000,,2013-02-27 15:52:00,
2013-02-27 11:02:00,38.0,29.0,-100.00,WNW,288,10.0,23.0,71,0.00,,,-99.99,322.000000,,2013-02-27 16:02:00,
2013-02-27 11:10:00,37.0,27.0,-100.00,WNW,285,11.0,21.0,68,0.00,,,0.44,340.000000,,2013-02-27 16:10:00,
2013-02-27 11:32:00,37.0,27.0,-100.00,WNW,285,11.0,21.0,68,0.00,,,0.44,340.000000,,2013-02-27 16:32:00,
2013-02-27 11:42:00,37.0,27.0,-100.00,WNW,285,11.0,21.0,68,0.00,,,0.44,340.000000,,2013-02-27 16:42:00,
2013-02-27 11:52:00,37.0,27.0,-100.00,WNW,285,11.0,21.0,68,0.00,,,0.44,340.000000,,2013-02-27 16:52:00,
2013-02-27 12:02:00,37.0,27.0,-100.00,WNW,285,11.0,21.0,68,0.00,,,0.44,340.000000,,2013-02-27 17:02:00,
2013-02-27 12:10:00,39.0,29.0,-100.00,NW,307,10.0,19.0,68,0.00,,,0.32,286.000000,,2013-02-27 17:10:00,
2013-02-27 12:32:00,39.0,29.0,-100.00,NW,307,10.0,19.0,68,0.00,,,0.32,286.000000,,2013-02-27 17:32:00,
2013-02-27 12:42:00,39.0,29.0,-100.00,NW,307,10.0,19.0,68,0.00,,,0.32,286.000000,,2013-02-27 17:42:00,
2013-02-27 12:52:00,39.0,29.0,-100.00,NW,307,10.0,19.0,68,0.00,,,0.32,286.000000,,2013-02-27 17:52:00,
2013-02-27 13:02:00,39.0,29.0,-100.00,NW,307,10.0,19.0,68,0.00,,,0.32,286.000000,,2013-02-27 18:02:00,
2013-02-27 13:10:00,41.0,31.0,-100.00,NW,316,11.0,21.0,66,0.00,,,0.28,411.000000,,2013-02-27 18:10:00,
2013-02-27 13:32:00,41.0,31.0,-100.00,NW,316,11.0,21.0,66,0.00,,,0.28,411.000000,,2013-02-27 18:32:00,
2013-02-27 13:42:00,41.0,31.0,-100.00,NW,316,11.0,21.0,66,0.00,,,0.28,411.000000,,2013-02-27 18:42:00,
2013-02-27 13:52:00,41.0,31.0,-100.00,NW,316,11.0,21.0,66,0.00,,,0.28,411.000000,,2013-02-27 18:52:00,
2013-02-27 14:02:00,41.0,31.0,-100.00,NW,316,11.0,21.0,66,0.00,,,0.28,411.000000,,2013-02-27 19:02:00,
2013-02-27 14:10:00,45.0,34.0,-100.00,NW,317,8.0,22.0,64,0.00,,,0.17,438.000000,,2013-02-27 19:10:00,
2013-02-27 14:32:00,45.0,34.0,-100.00,NW,317,8.0,22.0,64,0.00,,,0.17,438.000000,,2013-02-27 19:32:00,
2013-02-27 14:42:00,45.0,34.0,-100.00,NW,317,8.0,22.0,64,0.00,,,0.17,438.000000,,2013-02-27 19:42:00,
2013-02-27 14:52:00,45.0,34.0,-100.00,NW,317,8.0,22.0,64,0.00,,,0.17,438.000000,,2013-02-27 19:52:00,
2013-02-27 15:02:00,45.0,34.0,-100.00,NW,317,8.0,22.0,64,0.00,,,0.17,438.000000,,2013-02-27 20:02:00,
2013-02-27 15:10:00,45.0,31.0,-100.00,West,265,12.0,20.0,58,0.00,,,-99.99,422.000000,,2013-02-27 20:10:00,
2013-02-27 15:32:00,45.0,31.0,-100.00,West,265,12.0,20.0,58,0.00,,,-99.99,422.000000,,2013-02-27 20:32:00,
2013-02-27 15:42:00,45.0,31.0,-100.00,West,265,12.0,20.0,58,0.00,,,-99.99,422.000000,,2013-02-27 20:42:00,
2013-02-27 15:53:00,45.0,31.0,-100.00,West,265,12.0,20.0,58,0.00,,,-99.99,422.000000,,2013-02-27 20:53:00,
2013-02-27 16:02:00,45.0,31.0,-100.00,West,265,12.0,20.0,58,0.00,,,-99.99,422.000000,,2013-02-27 21:02:00,
2013-02-27 16:10:00,46.0,30.0,-100.00,West,275,5.0,21.0,54,0.00,,,-99.99,336.000000,,2013-02-27 21:10:00,
2013-02-27 16:42:00,46.0,30.0,-100.00,West,275,5.0,21.0,54,0.00,,,-99.99,336.000000,,2013-02-27 21:42:00,
2013-02-27 16:52:00,46.0,30.0,-100.00,West,275,5.0,21.0,54,0.00,,,-99.99,336.000000,,2013-02-27 21:52:00,
2013-02-27 17:02:00,46.0,30.0,-100.00,West,275,5.0,21.0,54,0.00,,,-99.99,336.000000,,2013-02-27 22:02:00,
2013-02-27 17:10:00,46.0,31.0,-100.00,South,191,8.0,19.0,56,0.00,,,0.00,206.000000,,2013-02-27 22:10:00,
2013-02-27 17:42:00,46.0,31.0,-100.00,South,191,8.0,19.0,56,0.00,,,0.00,206.000000,,2013-02-27 22:42:00,
2013-02-27 17:52:00,46.0,31.0,-100.00,South,191,8.0,19.0,56,0.00,,,0.00,206.000000,,2013-02-27 22:52:00,
2013-02-27 18:02:00,46.0,31.0,-100.00,South,191,8.0,19.0,56,0.00,,,0.00,206.000000,,2013-02-27 23:02:00,
2013-02-27 18:10:00,45.0,30.0,-100.00,SSW,194,6.0,20.0,55,0.00,,,0.00,79.000000,,2013-02-27 23:10:00,
2013-02-27 18:32:00,45.0,30.0,-100.00,SSW,194,6.0,20.0,55,0.00,,,0.00,79.000000,,2013-02-27 23:32:00,
2013-02-27 18:42:00,45.0,30.0,-100.00,SSW,194,6.0,20.0,55,0.00,,,0.00,79.000000,,2013-02-27 23:42:00,
2013-02-27 18:53:00,45.0,30.0,-100.00,SSW,194,6.0,20.0,55,0.00,,,0.00,79.000000,,2013-02-27 23:53:00,
2013-02-27 19:02:00,45.0,30.0,-100.00,SSW,194,6.0,20.0,55,0.00,,,0.00,79.000000,,2013-02-28 00:02:00,
2013-02-27 19:10:00,44.0,25.0,-100.00,SW,236,16.0,25.0,47,0.00,,,0.00,0.000000,,2013-02-28 00:10:00,
2013-02-27 19:32:00,44.0,25.0,-100.00,SW,236,16.0,25.0,47,0.00,,,0.00,0.000000,,2013-02-28 00:32:00,
2013-02-27 19:42:00,44.0,25.0,-100.00,SW,236,16.0,25.0,47,0.00,,,0.00,0.000000,,2013-02-28 00:42:00,
2013-02-27 19:52:00,44.0,25.0,-100.00,SW,236,16.0,25.0,47,0.00,,,0.00,0.000000,,2013-02-28 00:52:00,
2013-02-27 20:01:00,44.0,25.0,-100.00,SW,236,16.0,25.0,47,0.00,,,0.00,0.000000,,2013-02-28 01:01:00,
2013-02-27 20:10:00,42.0,24.0,-100.00,WSW,240,16.0,31.0,48,0.00,,,0.00,0.000000,,2013-02-28 01:10:00,
2013-02-27 20:32:00,42.0,24.0,-100.00,WSW,240,16.0,31.0,48,0.00,,,0.00,0.000000,,2013-02-28 01:32:00,
2013-02-27 20:42:00,42.0,24.0,-100.00,WSW,240,16.0,31.0,48,0.00,,,0.00,0.000000,,2013-02-28 01:42:00,
2013-02-27 20:52:00,42.0,24.0,-100.00,WSW,240,16.0,31.0,48,0.00,,,0.00,0.000000,,2013-02-28 01:52:00,
2013-02-27 21:01:00,42.0,24.0,-100.00,WSW,240,16.0,31.0,48,0.00,,,0.00,0.000000,,2013-02-28 02:01:00,
2013-02-27 22:02:00,37.0,22.0,-100.00,West,271,12.0,27.0,54,0.00,,,0.00,0.000000,,2013-02-28 03:02:00,
2013-02-27 22:10:00,34.0,26.0,-100.00,West,280,7.0,26.0,73,0.00,,,0.00,0.000000,,2013-02-28 03:10:00,
2013-02-27 22:32:00,34.0,26.0,-100.00,West,280,7.0,26.0,73,0.00,,,0.00,0.000000,,2013-02-28 03:32:00,
2013-02-27 22:42:00,34.0,26.0,-100.00,West,280,7.0,26.0,73,0.00,,,0.00,0.000000,,2013-02-28 03:42:00,
2013-02-27 22:52:00,34.0,26.0,-100.00,West,280,7.0,26.0,73,0.00,,,0.00,0.000000,,2013-02-28 03:52:00,
2013-02-27 23:02:00,34.0,26.0,-100.00,West,280,7.0,26.0,73,0.00,,,0.00,0.000000,,2013-02-28 04:02:00,
2013-02-27 23:10:00,34.0,30.0,-100.00,WNW,282,11.0,25.0,84,0.00,,,0.00,0.000000,,2013-02-28 04:10:00,
2013-02-27 23:32:00,34.0,30.0,-100.00,WNW,282,11.0,25.0,84,0.00,,,0.00,0.000000,,2013-02-28 04:32:00,
2013-02-27 23:42:00,34.0,30.0,-100.00,WNW,282,11.0,25.0,84,0.00,,,0.00,0.000000,,2013-02-28 04:42:00,
2013-02-27 23:52:00,34.0,30.0,-100.00,WNW,282,11.0,25.0,84,0.00,,,0.00,0.000000,,2013-02-28 04:52:00,